Estación Meteorológica Peña el Pijo (Robertgarden) [ 11/19/19 11:22:01 CET ]

Fecha Hora Presion(HPa) Temp (°C) Humedad % Rocio (°C) Viento ( m/s) Direccion Lluvia 1Hora(mm) Lluvia 24H(mm) LLuvia Total(mm)
2019-May-30 01:01:42 1014.900 13.5 67 7.5         318.05
2019-May-30 02:01:38 1014.900 14.3 72 9.3         318.05
2019-May-30 03:02:01 1014.700 14.4 75 10.0         318.05
2019-May-30 04:02:10 1014.700 13.6 78 9.8         318.05
2019-May-30 05:02:05 1014.700 16.9 80 13.4         318.05
2019-May-30 06:02:28 1014.600 22.8 83 19.8         318.05
2019-May-30 07:01:31 1015.000 38.5 88 36.2         318.05
2019-May-30 08:01:46 1015.300 21.9 86 19.4         318.05
2019-May-30 09:01:50 1015.200 16.8 66 10.4         318.05
2019-May-30 10:01:48 1015.100 20.8 45 8.4         318.05
2019-May-30 11:01:34 1015.100 23.1 33 5.8         318.05
2019-May-30 12:01:37 1015.200 24.2 30 5.6 1.6 NNE     318.05
2019-May-30 13:01:41 1015.400 25.5 25 3.8         318.05
2019-May-30 14:01:44 1015.000 25.5 26 4.4         318.05
2019-May-30 15:01:43 1014.700 26.5 25 4.6         318.05
2019-May-30 16:01:55 1014.600 28.8 23 5.4         318.05
2019-May-30 17:01:42 1014.400 28.2 26 6.6 3.3 N     318.05
2019-May-30 18:01:47 1014.200 26.6 29 7.1         318.05
2019-May-30 19:01:53 1014.100 25.2 32 7.3         318.05
2019-May-30 20:01:46 1014.600 22.8 37 7.3         318.05
2019-May-30 21:01:49 1015.000 20.3 46 8.2         318.05
2019-May-30 22:01:38 1015.400 18.6 52 8.5         318.05
2019-May-30 23:01:48 1016.200 17.8 60 9.9         318.05

Temperatura Máxima:38°    Temperatura Mínima:13°
Presión Máxima:1016.200 Hpa    Presión Mínima:1014.100 Hpa


Volver